Trabzon — 9HA2783 — position and weather

sailwx.info

Track history (hours):
 
Tides and Currents Weather Stations Pressure Air Temp Water Temp Dewpoint Dewpoint Depression Visibility Wind Speed Wind Dir Waves Ship Positions

Trabzon

Last reported at 2015-Apr-01 04:33 UTC. Time now 2015-Apr-01 05:52 UTC.
Position N 52°26' E 004°01'.

Length 229 m; draft 12.6 m.

Type: Cargo ship. MMSI: 215679000.

Date/timePositionNaut miles runAvg speedWind from/ knotsBaromVisibWave heightAir tempDewpointWater temp
2015-Apr-01 04:33N 52°26' E 004°01'0 0.0
2015-Apr-01 03:33N 52°26' E 004°01'0 0.1
2015-Apr-01 02:30N 52°26' E 004°01'0 0.0
2015-Apr-01 01:33N 52°26' E 004°01'0 0.0
2015-Apr-01 00:33N 52°26' E 004°01'0 0.1
2015-Mar-31 23:27N 52°26' E 004°01'0 0.0
2015-Mar-31 22:33N 52°26' E 004°01'0 0.0
2015-Mar-31 21:33N 52°26' E 004°01'0 0.0
2015-Mar-31 20:33N 52°26' E 004°01'0 0.0
2015-Mar-31 19:33N 52°26' E 004°01'0 0.2
2015-Mar-31 18:33N 52°26' E 004°01'3 3.2
2015-Mar-31 17:33N 52°27' E 003°55'2 1.4
2015-Mar-31 16:18N 52°28' E 003°54'1 1.6
2015-Mar-31 15:31N 52°28' E 003°56'1 1.1
2015-Mar-31 14:19N 52°28' E 003°58'1 1.0
2015-Mar-31 13:31N 52°27' E 003°59'1 0.5
2015-Mar-31 12:29N 52°27' E 003°60'1 1.0
2015-Mar-31 11:32N 52°27' E 004°01'0 0.4
2015-Mar-31 10:27N 52°27' E 004°01'0 0.1
2015-Mar-31 09:18N 52°27' E 004°01'0 0.1
2015-Mar-31 08:27N 52°27' E 004°01'0 0.1
2015-Mar-31 07:27N 52°27' E 004°01'0 0.0
2015-Mar-31 06:27N 52°27' E 004°01'0 0.0
2015-Mar-31 01:24N 52°27' E 004°01'0 0.0
2015-Mar-30 23:18N 52°27' E 004°01'0 0.1
2015-Mar-30 19:27N 52°27' E 004°01'0 0.0
2015-Mar-30 18:30N 52°27' E 004°01'0 0.0
2015-Mar-30 17:15N 52°27' E 004°01'0 0.1
2015-Mar-30 16:30N 52°27' E 004°01'0 0.1
2015-Mar-30 15:30N 52°27' E 004°01'0 0.0
2015-Mar-30 14:24N 52°27' E 004°01'0 0.1
2015-Mar-30 13:24N 52°27' E 004°01'0 0.0
2015-Mar-30 12:30N 52°27' E 004°01'0 0.0
2015-Mar-30 11:30N 52°27' E 004°01'0 0.0
2015-Mar-30 10:15N 52°27' E 004°01'0 0.0
2015-Mar-30 09:33N 52°27' E 004°01'0 0.0
2015-Mar-30 08:24N 52°27' E 004°01'0 0.0
2015-Mar-30 07:18N 52°27' E 004°01'0 0.1
2015-Mar-30 06:30N 52°27' E 004°01'0 0.0
2015-Mar-30 05:33N 52°27' E 004°01'0 0.0
2015-Mar-30 03:30N 52°27' E 004°01'0 0.1
2015-Mar-30 02:06N 52°27' E 004°01'0 0.1
2015-Mar-30 01:30N 52°27' E 004°01'0 0.1
2015-Mar-30 00:09N 52°27' E 004°01'0 0.0
2015-Mar-29 23:18N 52°27' E 004°01'0 0.0
2015-Mar-29 20:30N 52°27' E 004°01'0 0.0
2015-Mar-29 19:19N 52°27' E 004°01'0 0.2
2015-Mar-29 18:33N 52°27' E 004°01'2 1.7
2015-Mar-29 17:33N 52°27' E 003°58'63 8.8
2015-Mar-29 10:26N 53°26' E 004°33'2110.3
2015-Mar-29 08:20N 53°46' E 004°44'910.7
2015-Mar-29 07:28N 53°55' E 004°48'1010.8
2015-Mar-29 06:33N 54°05' E 004°52'1110.8
2015-Mar-29 05:30N 54°16' E 004°57'  
2015-Mar-25 21:04N 66°17' E 012°09'610.8
2015-Mar-25 20:33N 66°16' E 012°23'  
2015-Mar-22 11:30N 66°10' E 012°49'9 9.5
2015-Mar-22 10:33N 66°15' E 012°31'  
Track history (hours):
 
Tides and Currents Weather Stations Pressure Air Temp Water Temp Dewpoint Dewpoint Depression Visibility Wind Speed Wind Dir Waves Ship Positions

Trabzon

Last reported at 2015-Apr-01 04:33 UTC. Time now 2015-Apr-01 05:52 UTC.
Position N 52°26' E 004°01'.

Length 229 m; draft 12.6 m.

Type: Cargo ship. MMSI: 215679000.

Date/timePositionNaut miles runAvg speedWind from/ knotsBaromVisibWave heightAir tempDewpointWater temp
2015-Apr-01 04:33N 52°26' E 004°01'0 0.0
2015-Apr-01 03:33N 52°26' E 004°01'0 0.1
2015-Apr-01 02:30N 52°26' E 004°01'0 0.0
2015-Apr-01 01:33N 52°26' E 004°01'0 0.0
2015-Apr-01 00:33N 52°26' E 004°01'0 0.1
2015-Mar-31 23:27N 52°26' E 004°01'0 0.0
2015-Mar-31 22:33N 52°26' E 004°01'0 0.0
2015-Mar-31 21:33N 52°26' E 004°01'0 0.0
2015-Mar-31 20:33N 52°26' E 004°01'0 0.0
2015-Mar-31 19:33N 52°26' E 004°01'0 0.2
2015-Mar-31 18:33N 52°26' E 004°01'3 3.2
2015-Mar-31 17:33N 52°27' E 003°55'2 1.4
2015-Mar-31 16:18N 52°28' E 003°54'1 1.6
2015-Mar-31 15:31N 52°28' E 003°56'1 1.1
2015-Mar-31 14:19N 52°28' E 003°58'1 1.0
2015-Mar-31 13:31N 52°27' E 003°59'1 0.5
2015-Mar-31 12:29N 52°27' E 003°60'1 1.0
2015-Mar-31 11:32N 52°27' E 004°01'0 0.4
2015-Mar-31 10:27N 52°27' E 004°01'0 0.1
2015-Mar-31 09:18N 52°27' E 004°01'0 0.1
2015-Mar-31 08:27N 52°27' E 004°01'0 0.1
2015-Mar-31 07:27N 52°27' E 004°01'0 0.0
2015-Mar-31 06:27N 52°27' E 004°01'0 0.0
2015-Mar-31 01:24N 52°27' E 004°01'0 0.0
2015-Mar-30 23:18N 52°27' E 004°01'0 0.1
2015-Mar-30 19:27N 52°27' E 004°01'0 0.0
2015-Mar-30 18:30N 52°27' E 004°01'0 0.0
2015-Mar-30 17:15N 52°27' E 004°01'0 0.1
2015-Mar-30 16:30N 52°27' E 004°01'0 0.1
2015-Mar-30 15:30N 52°27' E 004°01'0 0.0
2015-Mar-30 14:24N 52°27' E 004°01'0 0.1
2015-Mar-30 13:24N 52°27' E 004°01'0 0.0
2015-Mar-30 12:30N 52°27' E 004°01'0 0.0
2015-Mar-30 11:30N 52°27' E 004°01'0 0.0
2015-Mar-30 10:15N 52°27' E 004°01'0 0.0
2015-Mar-30 09:33N 52°27' E 004°01'0 0.0
2015-Mar-30 08:24N 52°27' E 004°01'0 0.0
2015-Mar-30 07:18N 52°27' E 004°01'0 0.1
2015-Mar-30 06:30N 52°27' E 004°01'0 0.0
2015-Mar-30 05:33N 52°27' E 004°01'0 0.0
2015-Mar-30 03:30N 52°27' E 004°01'0 0.1
2015-Mar-30 02:06N 52°27' E 004°01'0 0.1
2015-Mar-30 01:30N 52°27' E 004°01'0 0.1
2015-Mar-30 00:09N 52°27' E 004°01'0 0.0
2015-Mar-29 23:18N 52°27' E 004°01'0 0.0
2015-Mar-29 20:30N 52°27' E 004°01'0 0.0
2015-Mar-29 19:19N 52°27' E 004°01'0 0.2
2015-Mar-29 18:33N 52°27' E 004°01'2 1.7
2015-Mar-29 17:33N 52°27' E 003°58'63 8.8
2015-Mar-29 10:26N 53°26' E 004°33'2110.3
2015-Mar-29 08:20N 53°46' E 004°44'910.7
2015-Mar-29 07:28N 53°55' E 004°48'1010.8
2015-Mar-29 06:33N 54°05' E 004°52'1110.8
2015-Mar-29 05:30N 54°16' E 004°57'  
2015-Mar-25 21:04N 66°17' E 012°09'610.8
2015-Mar-25 20:33N 66°16' E 012°23'  
2015-Mar-22 11:30N 66°10' E 012°49'9 9.5
2015-Mar-22 10:33N 66°15' E 012°31'  

Dump ship's entire track history